Terminal Aerodrome Forecast
Issued by NWS

Home | Current Version | Previous Version | Text Only | Print | Product List | Glossary On
Versions: 1 2 3 4 5 6 7 8 9 10 11 12 13 14 15 16
000
FTUS45 KSLC 191120
TAFSGU
TAF
KSGU 191120Z 1912/2012 10010KT P6SM FEW070 SCT120
     FM191500 VRB05KT P6SM FEW070 SCT120
     FM192100 22011KT P6SM SCT080 BKN150
     FM200300 VRB05KT P6SM SCT080 SCT150
      AMD LTD TO CLD VIS AND WIND=

USA.gov is the U.S. government's official web portal to all federal, state and local government web resources and services.